sensor_id;sensor_type;location;lat;lon;timestamp;P1;durP1;ratioP1;P2;durP2;ratioP2
44670;SDS011;48397;53.016;-2.260;2022-12-18T00:01:31;17.83;;;7.53;;
44670;SDS011;48397;53.016;-2.260;2022-12-18T00:04:04;15.77;;;7.13;;
44670;SDS011;48397;53.016;-2.260;2022-12-18T00:06:34;17.43;;;7.80;;
44670;SDS011;48397;53.016;-2.260;2022-12-18T00:09:04;23.23;;;8.73;;
44670;SDS011;48397;53.016;-2.260;2022-12-18T00:11:35;19.97;;;9.17;;
44670;SDS011;48397;53.016;-2.260;2022-12-18T00:14:02;14.55;;;7.70;;
44670;SDS011;48397;53.016;-2.260;2022-12-18T00:16:30;16.70;;;8.05;;
44670;SDS011;48397;53.016;-2.260;2022-12-18T00:19:00;15.13;;;7.70;;
44670;SDS011;48397;53.016;-2.260;2022-12-18T00:21:28;17.67;;;7.20;;
44670;SDS011;48397;53.016;-2.260;2022-12-18T00:23:58;12.60;;;7.10;;
44670;SDS011;48397;53.016;-2.260;2022-12-18T00:26:28;15.33;;;7.03;;
44670;SDS011;48397;53.016;-2.260;2022-12-18T00:29:00;13.47;;;7.40;;
44670;SDS011;48397;53.016;-2.260;2022-12-18T00:31:31;17.20;;;7.30;;
44670;SDS011;48397;53.016;-2.260;2022-12-18T00:34:00;15.57;;;7.20;;
44670;SDS011;48397;53.016;-2.260;2022-12-18T00:36:30;12.53;;;6.60;;
44670;SDS011;48397;53.016;-2.260;2022-12-18T00:39:00;14.67;;;6.67;;
44670;SDS011;48397;53.016;-2.260;2022-12-18T00:41:29;12.47;;;6.53;;
44670;SDS011;48397;53.016;-2.260;2022-12-18T00:44:16;14.37;;;6.03;;
44670;SDS011;48397;53.016;-2.260;2022-12-18T00:46:46;15.93;;;6.73;;
44670;SDS011;48397;53.016;-2.260;2022-12-18T00:49:16;12.93;;;6.77;;
44670;SDS011;48397;53.016;-2.260;2022-12-18T00:51:45;13.00;;;5.90;;
44670;SDS011;48397;53.016;-2.260;2022-12-18T00:54:13;16.98;;;6.70;;
44670;SDS011;48397;53.016;-2.260;2022-12-18T00:56:42;18.37;;;6.87;;
44670;SDS011;48397;53.016;-2.260;2022-12-18T00:59:17;17.00;;;6.97;;
44670;SDS011;48397;53.016;-2.260;2022-12-18T01:01:45;13.03;;;6.60;;
44670;SDS011;48397;53.016;-2.260;2022-12-18T01:04:14;9.77;;;5.47;;
44670;SDS011;48397;53.016;-2.260;2022-12-18T01:06:44;16.33;;;6.83;;
44670;SDS011;48397;53.016;-2.260;2022-12-18T01:09:13;13.35;;;6.38;;
44670;SDS011;48397;53.016;-2.260;2022-12-18T01:11:41;14.70;;;6.47;;
44670;SDS011;48397;53.016;-2.260;2022-12-18T01:14:10;20.73;;;7.47;;
44670;SDS011;48397;53.016;-2.260;2022-12-18T01:16:38;14.55;;;6.63;;
44670;SDS011;48397;53.016;-2.260;2022-12-18T01:19:06;15.02;;;6.32;;
44670;SDS011;48397;53.016;-2.260;2022-12-18T01:24:03;13.13;;;7.20;;
44670;SDS011;48397;53.016;-2.260;2022-12-18T01:26:31;12.20;;;6.63;;
44670;SDS011;48397;53.016;-2.260;2022-12-18T01:29:00;16.07;;;7.13;;
44670;SDS011;48397;53.016;-2.260;2022-12-18T01:31:29;12.43;;;6.53;;
44670;SDS011;48397;53.016;-2.260;2022-12-18T01:34:02;10.50;;;6.60;;
44670;SDS011;48397;53.016;-2.260;2022-12-18T01:36:32;14.27;;;7.43;;
44670;SDS011;48397;53.016;-2.260;2022-12-18T01:39:03;16.03;;;7.93;;
44670;SDS011;48397;53.016;-2.260;2022-12-18T01:41:33;13.77;;;6.97;;
44670;SDS011;48397;53.016;-2.260;2022-12-18T01:47:34;16.03;;;7.63;;
44670;SDS011;48397;53.016;-2.260;2022-12-18T01:50:17;13.27;;;7.30;;
44670;SDS011;48397;53.016;-2.260;2022-12-18T01:55:26;14.43;;;7.83;;
44670;SDS011;48397;53.016;-2.260;2022-12-18T01:57:57;13.97;;;8.23;;
44670;SDS011;48397;53.016;-2.260;2022-12-18T02:00:27;13.50;;;6.43;;
44670;SDS011;48397;53.016;-2.260;2022-12-18T02:02:56;18.87;;;7.90;;
44670;SDS011;48397;53.016;-2.260;2022-12-18T02:09:14;22.48;;;10.05;;
44670;SDS011;48397;53.016;-2.260;2022-12-18T02:11:59;16.17;;;8.10;;
44670;SDS011;48397;53.016;-2.260;2022-12-18T02:17:16;21.00;;;9.67;;
44670;SDS011;48397;53.016;-2.260;2022-12-18T02:26:02;24.20;;;9.90;;
44670;SDS011;48397;53.016;-2.260;2022-12-18T02:28:52;22.63;;;9.60;;
44670;SDS011;48397;53.016;-2.260;2022-12-18T02:31:31;20.77;;;9.90;;
44670;SDS011;48397;53.016;-2.260;2022-12-18T02:34:04;21.87;;;10.40;;
44670;SDS011;48397;53.016;-2.260;2022-12-18T02:36:41;20.33;;;10.63;;
44670;SDS011;48397;53.016;-2.260;2022-12-18T02:39:11;19.70;;;9.67;;
44670;SDS011;48397;53.016;-2.260;2022-12-18T02:41:51;18.30;;;9.07;;
44670;SDS011;48397;53.016;-2.260;2022-12-18T02:44:21;20.77;;;9.70;;
44670;SDS011;48397;53.016;-2.260;2022-12-18T02:46:50;18.90;;;9.25;;
44670;SDS011;48397;53.016;-2.260;2022-12-18T03:00:45;21.13;;;9.57;;
44670;SDS011;48397;53.016;-2.260;2022-12-18T03:03:35;23.50;;;10.07;;
44670;SDS011;48397;53.016;-2.260;2022-12-18T03:06:12;21.87;;;10.40;;
44670;SDS011;48397;53.016;-2.260;2022-12-18T03:08:49;19.83;;;9.60;;
44670;SDS011;48397;53.016;-2.260;2022-12-18T03:11:22;25.30;;;10.47;;
44670;SDS011;48397;53.016;-2.260;2022-12-18T03:14:11;20.67;;;10.37;;
44670;SDS011;48397;53.016;-2.260;2022-12-18T03:16:46;23.80;;;11.07;;
44670;SDS011;48397;53.016;-2.260;2022-12-18T03:19:19;20.93;;;10.07;;
44670;SDS011;48397;53.016;-2.260;2022-12-18T03:21:53;21.70;;;10.07;;
44670;SDS011;48397;53.016;-2.260;2022-12-18T03:24:25;23.13;;;10.73;;
44670;SDS011;48397;53.016;-2.260;2022-12-18T03:26:57;24.23;;;10.70;;
44670;SDS011;48397;53.016;-2.260;2022-12-18T03:29:47;20.00;;;10.37;;
44670;SDS011;48397;53.016;-2.260;2022-12-18T03:32:29;24.57;;;11.07;;
44670;SDS011;48397;53.016;-2.260;2022-12-18T03:35:11;18.00;;;8.37;;
44670;SDS011;48397;53.016;-2.260;2022-12-18T03:37:45;25.67;;;10.13;;
44670;SDS011;48397;53.016;-2.260;2022-12-18T03:40:13;25.77;;;11.23;;
44670;SDS011;48397;53.016;-2.260;2022-12-18T03:42:55;28.60;;;8.30;;
44670;SDS011;48397;53.016;-2.260;2022-12-18T03:45:37;25.50;;;10.70;;
44670;SDS011;48397;53.016;-2.260;2022-12-18T03:48:14;18.80;;;9.80;;
44670;SDS011;48397;53.016;-2.260;2022-12-18T03:50:58;24.38;;;10.57;;
44670;SDS011;48397;53.016;-2.260;2022-12-18T03:53:48;23.77;;;11.07;;
44670;SDS011;48397;53.016;-2.260;2022-12-18T03:56:26;25.70;;;12.53;;
44670;SDS011;48397;53.016;-2.260;2022-12-18T03:58:58;22.90;;;10.90;;
44670;SDS011;48397;53.016;-2.260;2022-12-18T04:01:30;24.33;;;10.60;;
44670;SDS011;48397;53.016;-2.260;2022-12-18T04:04:01;28.10;;;11.83;;
44670;SDS011;48397;53.016;-2.260;2022-12-18T04:06:34;20.87;;;8.77;;
44670;SDS011;48397;53.016;-2.260;2022-12-18T04:09:03;26.27;;;11.93;;
44670;SDS011;48397;53.016;-2.260;2022-12-18T04:11:36;31.07;;;12.23;;
44670;SDS011;48397;53.016;-2.260;2022-12-18T04:14:06;16.40;;;8.40;;
44670;SDS011;48397;53.016;-2.260;2022-12-18T04:16:36;22.60;;;9.83;;
44670;SDS011;48397;53.016;-2.260;2022-12-18T04:19:07;29.90;;;11.67;;
44670;SDS011;48397;53.016;-2.260;2022-12-18T04:21:39;27.03;;;12.23;;
44670;SDS011;48397;53.016;-2.260;2022-12-18T04:24:10;27.03;;;12.70;;
44670;SDS011;48397;53.016;-2.260;2022-12-18T04:26:43;32.27;;;13.30;;
44670;SDS011;48397;53.016;-2.260;2022-12-18T04:29:17;30.80;;;13.10;;
44670;SDS011;48397;53.016;-2.260;2022-12-18T04:31:45;29.00;;;12.82;;
44670;SDS011;48397;53.016;-2.260;2022-12-18T04:34:13;19.67;;;10.13;;
44670;SDS011;48397;53.016;-2.260;2022-12-18T04:36:47;33.10;;;12.90;;
44670;SDS011;48397;53.016;-2.260;2022-12-18T04:39:16;28.60;;;13.83;;
44670;SDS011;48397;53.016;-2.260;2022-12-18T04:41:45;28.87;;;13.07;;
44670;SDS011;48397;53.016;-2.260;2022-12-18T04:44:13;29.47;;;13.03;;
44670;SDS011;48397;53.016;-2.260;2022-12-18T04:46:41;29.90;;;13.07;;
44670;SDS011;48397;53.016;-2.260;2022-12-18T04:49:09;30.70;;;12.43;;
44670;SDS011;48397;53.016;-2.260;2022-12-18T04:51:40;34.20;;;14.33;;
44670;SDS011;48397;53.016;-2.260;2022-12-18T04:54:07;29.33;;;12.82;;
44670;SDS011;48397;53.016;-2.260;2022-12-18T04:56:35;34.30;;;13.30;;
44670;SDS011;48397;53.016;-2.260;2022-12-18T04:59:03;24.42;;;10.23;;
44670;SDS011;48397;53.016;-2.260;2022-12-18T05:01:32;37.33;;;12.93;;
44670;SDS011;48397;53.016;-2.260;2022-12-18T05:04:03;40.00;;;14.60;;
44670;SDS011;48397;53.016;-2.260;2022-12-18T05:06:31;34.30;;;14.77;;
44670;SDS011;48397;53.016;-2.260;2022-12-18T05:08:58;45.33;;;16.33;;
44670;SDS011;48397;53.016;-2.260;2022-12-18T05:11:26;39.15;;;15.43;;
44670;SDS011;48397;53.016;-2.260;2022-12-18T05:13:54;34.08;;;14.48;;
44670;SDS011;48397;53.016;-2.260;2022-12-18T05:16:21;37.05;;;15.77;;
44670;SDS011;48397;53.016;-2.260;2022-12-18T05:21:17;41.25;;;16.58;;
44670;SDS011;48397;53.016;-2.260;2022-12-18T05:23:45;41.08;;;16.77;;
44670;SDS011;48397;53.016;-2.260;2022-12-18T05:26:16;45.17;;;16.70;;
44670;SDS011;48397;53.016;-2.260;2022-12-18T05:28:45;45.83;;;16.53;;
44670;SDS011;48397;53.016;-2.260;2022-12-18T05:31:14;40.97;;;14.93;;
44670;SDS011;48397;53.016;-2.260;2022-12-18T05:33:42;45.60;;;15.80;;
44670;SDS011;48397;53.016;-2.260;2022-12-18T05:38:38;34.20;;;14.93;;
44670;SDS011;48397;53.016;-2.260;2022-12-18T05:41:06;44.27;;;16.13;;
44670;SDS011;48397;53.016;-2.260;2022-12-18T05:43:36;45.87;;;16.93;;
44670;SDS011;48397;53.016;-2.260;2022-12-18T05:46:06;37.10;;;13.03;;
44670;SDS011;48397;53.016;-2.260;2022-12-18T05:48:36;49.83;;;17.00;;
44670;SDS011;48397;53.016;-2.260;2022-12-18T05:51:04;47.92;;;17.33;;
44670;SDS011;48397;53.016;-2.260;2022-12-18T05:53:34;46.27;;;17.93;;
44670;SDS011;48397;53.016;-2.260;2022-12-18T05:56:05;47.40;;;16.63;;
44670;SDS011;48397;53.016;-2.260;2022-12-18T05:58:34;44.63;;;16.37;;
44670;SDS011;48397;53.016;-2.260;2022-12-18T06:01:09;48.58;;;16.80;;
44670;SDS011;48397;53.016;-2.260;2022-12-18T06:03:43;41.60;;;16.90;;
44670;SDS011;48397;53.016;-2.260;2022-12-18T06:06:13;41.67;;;15.63;;
44670;SDS011;48397;53.016;-2.260;2022-12-18T06:08:42;42.33;;;16.43;;
44670;SDS011;48397;53.016;-2.260;2022-12-18T06:11:12;38.97;;;15.30;;
44670;SDS011;48397;53.016;-2.260;2022-12-18T06:13:44;47.03;;;16.93;;
44670;SDS011;48397;53.016;-2.260;2022-12-18T06:16:13;47.43;;;15.57;;
44670;SDS011;48397;53.016;-2.260;2022-12-18T06:18:41;43.77;;;16.47;;
44670;SDS011;48397;53.016;-2.260;2022-12-18T06:21:09;44.78;;;19.38;;
44670;SDS011;48397;53.016;-2.260;2022-12-18T06:23:38;44.40;;;16.00;;
44670;SDS011;48397;53.016;-2.260;2022-12-18T06:26:07;47.63;;;16.93;;
44670;SDS011;48397;53.016;-2.260;2022-12-18T06:28:36;50.33;;;17.90;;
44670;SDS011;48397;53.016;-2.260;2022-12-18T06:31:04;46.05;;;17.25;;
44670;SDS011;48397;53.016;-2.260;2022-12-18T06:33:33;28.00;;;12.30;;
44670;SDS011;48397;53.016;-2.260;2022-12-18T06:36:02;51.67;;;18.43;;
44670;SDS011;48397;53.016;-2.260;2022-12-18T06:38:41;57.00;;;18.60;;
44670;SDS011;48397;53.016;-2.260;2022-12-18T06:41:11;52.40;;;17.63;;
44670;SDS011;48397;53.016;-2.260;2022-12-18T06:43:47;52.53;;;18.70;;
44670;SDS011;48397;53.016;-2.260;2022-12-18T06:46:14;48.05;;;18.25;;
44670;SDS011;48397;53.016;-2.260;2022-12-18T06:51:15;53.70;;;18.53;;
44670;SDS011;48397;53.016;-2.260;2022-12-18T06:53:46;50.90;;;16.30;;
44670;SDS011;48397;53.016;-2.260;2022-12-18T06:56:14;61.50;;;18.38;;
44670;SDS011;48397;53.016;-2.260;2022-12-18T06:58:42;56.20;;;19.05;;
44670;SDS011;48397;53.016;-2.260;2022-12-18T07:01:11;51.80;;;18.27;;
44670;SDS011;48397;53.016;-2.260;2022-12-18T07:03:39;46.13;;;18.17;;
44670;SDS011;48397;53.016;-2.260;2022-12-18T07:06:13;51.87;;;19.20;;
44670;SDS011;48397;53.016;-2.260;2022-12-18T07:08:43;46.63;;;17.40;;
44670;SDS011;48397;53.016;-2.260;2022-12-18T07:11:12;51.17;;;19.57;;
44670;SDS011;48397;53.016;-2.260;2022-12-18T07:13:39;46.00;;;16.30;;
44670;SDS011;48397;53.016;-2.260;2022-12-18T07:18:46;35.30;;;12.73;;
44670;SDS011;48397;53.016;-2.260;2022-12-18T07:21:15;48.67;;;16.52;;
44670;SDS011;48397;53.016;-2.260;2022-12-18T07:23:45;48.90;;;17.00;;
44670;SDS011;48397;53.016;-2.260;2022-12-18T07:26:16;39.27;;;13.53;;
44670;SDS011;48397;53.016;-2.260;2022-12-18T07:28:46;52.13;;;20.40;;
44670;SDS011;48397;53.016;-2.260;2022-12-18T07:31:15;39.63;;;14.18;;
44670;SDS011;48397;53.016;-2.260;2022-12-18T07:33:44;53.33;;;18.83;;
44670;SDS011;48397;53.016;-2.260;2022-12-18T07:36:13;59.50;;;19.37;;
44670;SDS011;48397;53.016;-2.260;2022-12-18T07:41:46;36.73;;;14.73;;
44670;SDS011;48397;53.016;-2.260;2022-12-18T07:44:34;46.20;;;17.63;;
44670;SDS011;48397;53.016;-2.260;2022-12-18T07:47:03;60.43;;;20.23;;
44670;SDS011;48397;53.016;-2.260;2022-12-18T07:49:37;54.17;;;18.00;;
44670;SDS011;48397;53.016;-2.260;2022-12-18T07:52:05;51.38;;;19.00;;
44670;SDS011;48397;53.016;-2.260;2022-12-18T07:54:33;60.20;;;20.48;;
44670;SDS011;48397;53.016;-2.260;2022-12-18T07:57:00;53.83;;;18.98;;
44670;SDS011;48397;53.016;-2.260;2022-12-18T07:59:28;35.15;;;15.57;;
44670;SDS011;48397;53.016;-2.260;2022-12-18T08:01:56;54.67;;;19.58;;
44670;SDS011;48397;53.016;-2.260;2022-12-18T08:04:24;58.72;;;22.05;;
44670;SDS011;48397;53.016;-2.260;2022-12-18T08:06:52;50.43;;;20.87;;
44670;SDS011;48397;53.016;-2.260;2022-12-18T08:09:20;56.13;;;19.92;;
44670;SDS011;48397;53.016;-2.260;2022-12-18T08:11:48;53.13;;;18.92;;
44670;SDS011;48397;53.016;-2.260;2022-12-18T08:14:16;56.35;;;20.90;;
44670;SDS011;48397;53.016;-2.260;2022-12-18T08:16:43;52.17;;;20.42;;
44670;SDS011;48397;53.016;-2.260;2022-12-18T08:19:11;52.20;;;19.58;;
44670;SDS011;48397;53.016;-2.260;2022-12-18T08:21:39;48.42;;;19.15;;
44670;SDS011;48397;53.016;-2.260;2022-12-18T08:24:08;46.17;;;17.05;;
44670;SDS011;48397;53.016;-2.260;2022-12-18T08:26:37;55.27;;;19.03;;
44670;SDS011;48397;53.016;-2.260;2022-12-18T08:29:05;54.50;;;19.73;;
44670;SDS011;48397;53.016;-2.260;2022-12-18T08:31:33;52.13;;;20.17;;
44670;SDS011;48397;53.016;-2.260;2022-12-18T08:36:28;51.97;;;19.52;;
44670;SDS011;48397;53.016;-2.260;2022-12-18T08:38:56;50.38;;;18.90;;
44670;SDS011;48397;53.016;-2.260;2022-12-18T08:41:24;56.37;;;19.80;;
44670;SDS011;48397;53.016;-2.260;2022-12-18T08:43:52;35.83;;;14.35;;
44670;SDS011;48397;53.016;-2.260;2022-12-18T08:46:39;55.20;;;19.53;;
44670;SDS011;48397;53.016;-2.260;2022-12-18T08:49:10;55.93;;;19.80;;
44670;SDS011;48397;53.016;-2.260;2022-12-18T08:51:38;53.50;;;18.90;;
44670;SDS011;48397;53.016;-2.260;2022-12-18T08:54:06;53.63;;;19.93;;
44670;SDS011;48397;53.016;-2.260;2022-12-18T08:56:34;38.85;;;13.20;;
44670;SDS011;48397;53.016;-2.260;2022-12-18T08:59:02;52.78;;;19.67;;
44670;SDS011;48397;53.016;-2.260;2022-12-18T09:01:31;60.13;;;18.43;;
44670;SDS011;48397;53.016;-2.260;2022-12-18T09:04:00;61.97;;;20.33;;
44670;SDS011;48397;53.016;-2.260;2022-12-18T09:06:28;51.45;;;18.67;;
44670;SDS011;48397;53.016;-2.260;2022-12-18T09:08:56;57.63;;;20.73;;
44670;SDS011;48397;53.016;-2.260;2022-12-18T09:11:25;45.83;;;15.57;;
44670;SDS011;48397;53.016;-2.260;2022-12-18T09:13:55;53.60;;;19.07;;
44670;SDS011;48397;53.016;-2.260;2022-12-18T09:16:24;59.33;;;19.73;;
44670;SDS011;48397;53.016;-2.260;2022-12-18T09:18:59;51.63;;;18.33;;
44670;SDS011;48397;53.016;-2.260;2022-12-18T09:21:31;50.57;;;17.63;;
44670;SDS011;48397;53.016;-2.260;2022-12-18T09:24:03;48.80;;;16.97;;
44670;SDS011;48397;53.016;-2.260;2022-12-18T09:26:35;49.53;;;17.73;;
44670;SDS011;48397;53.016;-2.260;2022-12-18T09:29:03;52.73;;;18.13;;
44670;SDS011;48397;53.016;-2.260;2022-12-18T09:31:31;54.60;;;19.13;;
44670;SDS011;48397;53.016;-2.260;2022-12-18T09:33:59;48.17;;;18.50;;
44670;SDS011;48397;53.016;-2.260;2022-12-18T09:36:27;43.25;;;15.70;;
44670;SDS011;48397;53.016;-2.260;2022-12-18T09:38:55;51.60;;;18.23;;
44670;SDS011;48397;53.016;-2.260;2022-12-18T09:41:29;48.83;;;16.40;;
44670;SDS011;48397;53.016;-2.260;2022-12-18T09:46:44;35.80;;;14.03;;
44670;SDS011;48397;53.016;-2.260;2022-12-18T09:49:16;42.90;;;14.93;;
44670;SDS011;48397;53.016;-2.260;2022-12-18T09:54:22;47.70;;;16.70;;
44670;SDS011;48397;53.016;-2.260;2022-12-18T09:57:12;26.47;;;10.13;;
44670;SDS011;48397;53.016;-2.260;2022-12-18T09:59:44;38.97;;;14.70;;
44670;SDS011;48397;53.016;-2.260;2022-12-18T10:02:21;36.43;;;15.07;;
44670;SDS011;48397;53.016;-2.260;2022-12-18T10:13:02;38.37;;;13.83;;
44670;SDS011;48397;53.016;-2.260;2022-12-18T10:20:49;40.10;;;15.67;;
44670;SDS011;48397;53.016;-2.260;2022-12-18T10:26:14;31.43;;;12.47;;
44670;SDS011;48397;53.016;-2.260;2022-12-18T10:28:42;46.40;;;15.60;;
44670;SDS011;48397;53.016;-2.260;2022-12-18T10:31:15;42.23;;;15.13;;
44670;SDS011;48397;53.016;-2.260;2022-12-18T10:33:45;35.90;;;14.53;;
44670;SDS011;48397;53.016;-2.260;2022-12-18T10:36:13;44.67;;;14.95;;
44670;SDS011;48397;53.016;-2.260;2022-12-18T10:43:49;29.07;;;11.80;;
44670;SDS011;48397;53.016;-2.260;2022-12-18T10:46:46;36.57;;;13.43;;
44670;SDS011;48397;53.016;-2.260;2022-12-18T10:49:26;35.77;;;13.50;;
44670;SDS011;48397;53.016;-2.260;2022-12-18T10:54:55;25.60;;;9.17;;
44670;SDS011;48397;53.016;-2.260;2022-12-18T10:59:54;38.33;;;14.57;;
44670;SDS011;48397;53.016;-2.260;2022-12-18T11:02:37;36.37;;;13.47;;
44670;SDS011;48397;53.016;-2.260;2022-12-18T11:08:03;32.15;;;12.50;;
44670;SDS011;48397;53.016;-2.260;2022-12-18T11:10:40;35.92;;;12.68;;
44670;SDS011;48397;53.016;-2.260;2022-12-18T11:13:17;32.97;;;13.30;;
44670;SDS011;48397;53.016;-2.260;2022-12-18T11:15:48;28.37;;;12.17;;
44670;SDS011;48397;53.016;-2.260;2022-12-18T11:18:17;35.63;;;14.23;;
44670;SDS011;48397;53.016;-2.260;2022-12-18T11:21:01;32.77;;;13.17;;
44670;SDS011;48397;53.016;-2.260;2022-12-18T11:23:33;32.70;;;13.13;;
44670;SDS011;48397;53.016;-2.260;2022-12-18T11:26:03;32.37;;;13.27;;
44670;SDS011;48397;53.016;-2.260;2022-12-18T11:31:24;30.30;;;12.23;;
44670;SDS011;48397;53.016;-2.260;2022-12-18T11:36:46;33.63;;;13.13;;
44670;SDS011;48397;53.016;-2.260;2022-12-18T11:44:48;29.43;;;12.03;;
44670;SDS011;48397;53.016;-2.260;2022-12-18T11:47:52;29.30;;;11.10;;
44670;SDS011;48397;53.016;-2.260;2022-12-18T11:50:52;31.20;;;11.97;;
44670;SDS011;48397;53.016;-2.260;2022-12-18T11:53:26;27.40;;;11.87;;
44670;SDS011;48397;53.016;-2.260;2022-12-18T12:04:38;32.47;;;12.03;;
44670;SDS011;48397;53.016;-2.260;2022-12-18T12:12:39;31.83;;;10.97;;
44670;SDS011;48397;53.016;-2.260;2022-12-18T12:18:01;28.90;;;11.87;;
44670;SDS011;48397;53.016;-2.260;2022-12-18T12:21:02;35.00;;;12.73;;
44670;SDS011;48397;53.016;-2.260;2022-12-18T12:29:31;29.77;;;12.82;;
44670;SDS011;48397;53.016;-2.260;2022-12-18T12:32:20;29.47;;;12.27;;
44670;SDS011;48397;53.016;-2.260;2022-12-18T12:41:07;33.30;;;13.27;;
44670;SDS011;48397;53.016;-2.260;2022-12-18T12:44:00;30.77;;;13.00;;
44670;SDS011;48397;53.016;-2.260;2022-12-18T12:46:39;35.40;;;14.30;;
44670;SDS011;48397;53.016;-2.260;2022-12-18T12:49:45;31.83;;;13.73;;
44670;SDS011;48397;53.016;-2.260;2022-12-18T12:52:21;21.50;;;9.57;;
44670;SDS011;48397;53.016;-2.260;2022-12-18T12:54:54;30.50;;;12.43;;
44670;SDS011;48397;53.016;-2.260;2022-12-18T12:57:27;37.40;;;13.83;;
44670;SDS011;48397;53.016;-2.260;2022-12-18T13:03:01;33.83;;;13.57;;
44670;SDS011;48397;53.016;-2.260;2022-12-18T13:05:49;33.23;;;13.10;;
44670;SDS011;48397;53.016;-2.260;2022-12-18T13:08:29;35.17;;;14.03;;
44670;SDS011;48397;53.016;-2.260;2022-12-18T13:11:01;34.63;;;14.27;;
44670;SDS011;48397;53.016;-2.260;2022-12-18T13:13:52;36.37;;;13.77;;
44670;SDS011;48397;53.016;-2.260;2022-12-18T13:16:23;33.17;;;14.37;;
44670;SDS011;48397;53.016;-2.260;2022-12-18T13:18:55;67.90;;;17.07;;
44670;SDS011;48397;53.016;-2.260;2022-12-18T13:21:32;26.97;;;11.77;;
44670;SDS011;48397;53.016;-2.260;2022-12-18T13:24:27;33.30;;;13.17;;
44670;SDS011;48397;53.016;-2.260;2022-12-18T13:26:58;27.73;;;10.73;;
44670;SDS011;48397;53.016;-2.260;2022-12-18T13:29:43;37.17;;;15.60;;
44670;SDS011;48397;53.016;-2.260;2022-12-18T13:32:23;40.97;;;15.47;;
44670;SDS011;48397;53.016;-2.260;2022-12-18T13:37:53;36.97;;;14.13;;
44670;SDS011;48397;53.016;-2.260;2022-12-18T13:43:27;35.37;;;13.53;;
44670;SDS011;48397;53.016;-2.260;2022-12-18T13:48:57;36.58;;;16.80;;
44670;SDS011;48397;53.016;-2.260;2022-12-18T13:51:33;33.67;;;13.53;;
44670;SDS011;48397;53.016;-2.260;2022-12-18T13:54:06;50.63;;;14.80;;
44670;SDS011;48397;53.016;-2.260;2022-12-18T13:57:00;37.85;;;14.85;;
44670;SDS011;48397;53.016;-2.260;2022-12-18T13:59:38;34.53;;;13.73;;
44670;SDS011;48397;53.016;-2.260;2022-12-18T14:02:18;28.10;;;12.60;;
44670;SDS011;48397;53.016;-2.260;2022-12-18T14:04:50;39.43;;;14.70;;
44670;SDS011;48397;53.016;-2.260;2022-12-18T14:07:19;41.43;;;14.83;;
44670;SDS011;48397;53.016;-2.260;2022-12-18T14:09:50;32.10;;;12.43;;
44670;SDS011;48397;53.016;-2.260;2022-12-18T14:12:47;33.87;;;12.80;;
44670;SDS011;48397;53.016;-2.260;2022-12-18T14:15:36;23.17;;;9.50;;
44670;SDS011;48397;53.016;-2.260;2022-12-18T14:20:50;32.23;;;12.10;;
44670;SDS011;48397;53.016;-2.260;2022-12-18T14:23:38;33.33;;;13.83;;
44670;SDS011;48397;53.016;-2.260;2022-12-18T14:28:52;45.50;;;16.03;;
44670;SDS011;48397;53.016;-2.260;2022-12-18T14:31:30;35.97;;;15.43;;
44670;SDS011;48397;53.016;-2.260;2022-12-18T14:33:58;34.13;;;15.17;;
44670;SDS011;48397;53.016;-2.260;2022-12-18T14:36:27;41.05;;;15.75;;
44670;SDS011;48397;53.016;-2.260;2022-12-18T14:38:56;40.33;;;16.77;;
44670;SDS011;48397;53.016;-2.260;2022-12-18T14:41:25;42.73;;;15.83;;
44670;SDS011;48397;53.016;-2.260;2022-12-18T14:43:54;41.67;;;12.68;;
44670;SDS011;48397;53.016;-2.260;2022-12-18T14:46:30;36.97;;;14.63;;
44670;SDS011;48397;53.016;-2.260;2022-12-18T14:49:04;27.63;;;11.33;;
44670;SDS011;48397;53.016;-2.260;2022-12-18T14:51:53;30.23;;;11.10;;
44670;SDS011;48397;53.016;-2.260;2022-12-18T14:54:24;35.43;;;15.07;;
44670;SDS011;48397;53.016;-2.260;2022-12-18T14:56:59;34.20;;;13.83;;
44670;SDS011;48397;53.016;-2.260;2022-12-18T14:59:32;32.00;;;12.87;;
44670;SDS011;48397;53.016;-2.260;2022-12-18T15:07:57;27.80;;;11.60;;
44670;SDS011;48397;53.016;-2.260;2022-12-18T15:10:28;36.77;;;13.80;;
44670;SDS011;48397;53.016;-2.260;2022-12-18T15:20:45;38.27;;;16.13;;
44670;SDS011;48397;53.016;-2.260;2022-12-18T15:23:23;35.97;;;15.13;;
44670;SDS011;48397;53.016;-2.260;2022-12-18T15:26:00;34.90;;;14.70;;
44670;SDS011;48397;53.016;-2.260;2022-12-18T15:28:43;37.40;;;15.17;;
44670;SDS011;48397;53.016;-2.260;2022-12-18T15:31:23;40.03;;;14.37;;
44670;SDS011;48397;53.016;-2.260;2022-12-18T15:34:00;32.07;;;14.63;;
44670;SDS011;48397;53.016;-2.260;2022-12-18T15:36:34;31.60;;;13.73;;
44670;SDS011;48397;53.016;-2.260;2022-12-18T15:39:03;33.80;;;13.33;;
44670;SDS011;48397;53.016;-2.260;2022-12-18T15:41:33;59.07;;;16.77;;
44670;SDS011;48397;53.016;-2.260;2022-12-18T15:44:03;33.23;;;13.13;;
44670;SDS011;48397;53.016;-2.260;2022-12-18T15:46:51;33.57;;;13.60;;
44670;SDS011;48397;53.016;-2.260;2022-12-18T15:49:19;31.10;;;13.57;;
44670;SDS011;48397;53.016;-2.260;2022-12-18T15:51:54;28.38;;;10.82;;
44670;SDS011;48397;53.016;-2.260;2022-12-18T15:54:25;34.75;;;14.23;;
44670;SDS011;48397;53.016;-2.260;2022-12-18T15:57:29;30.23;;;12.97;;
44670;SDS011;48397;53.016;-2.260;2022-12-18T15:59:57;31.05;;;13.27;;
44670;SDS011;48397;53.016;-2.260;2022-12-18T16:02:25;25.30;;;11.07;;
44670;SDS011;48397;53.016;-2.260;2022-12-18T16:04:56;31.73;;;13.50;;
44670;SDS011;48397;53.016;-2.260;2022-12-18T16:07:24;47.22;;;12.98;;
44670;SDS011;48397;53.016;-2.260;2022-12-18T16:09:55;30.90;;;12.63;;
44670;SDS011;48397;53.016;-2.260;2022-12-18T16:12:24;36.17;;;9.17;;
44670;SDS011;48397;53.016;-2.260;2022-12-18T16:14:52;29.95;;;12.73;;
44670;SDS011;48397;53.016;-2.260;2022-12-18T16:17:20;25.35;;;11.70;;
44670;SDS011;48397;53.016;-2.260;2022-12-18T16:19:48;91.32;;;16.63;;
44670;SDS011;48397;53.016;-2.260;2022-12-18T16:22:21;26.65;;;12.20;;
44670;SDS011;48397;53.016;-2.260;2022-12-18T16:24:55;43.58;;;13.93;;
44670;SDS011;48397;53.016;-2.260;2022-12-18T16:27:24;25.48;;;11.68;;
44670;SDS011;48397;53.016;-2.260;2022-12-18T16:32:20;34.38;;;11.57;;
44670;SDS011;48397;53.016;-2.260;2022-12-18T16:34:49;44.80;;;12.98;;
44670;SDS011;48397;53.016;-2.260;2022-12-18T16:37:17;81.35;;;14.88;;
44670;SDS011;48397;53.016;-2.260;2022-12-18T16:39:44;29.13;;;12.48;;
44670;SDS011;48397;53.016;-2.260;2022-12-18T16:42:16;16.42;;;7.43;;
44670;SDS011;48397;53.016;-2.260;2022-12-18T16:44:47;23.95;;;10.30;;
44670;SDS011;48397;53.016;-2.260;2022-12-18T16:47:16;23.70;;;10.57;;
44670;SDS011;48397;53.016;-2.260;2022-12-18T16:49:44;21.98;;;9.20;;
44670;SDS011;48397;53.016;-2.260;2022-12-18T16:54:40;18.25;;;8.57;;
44670;SDS011;48397;53.016;-2.260;2022-12-18T16:57:08;18.65;;;8.70;;
44670;SDS011;48397;53.016;-2.260;2022-12-18T16:59:40;19.33;;;8.23;;
44670;SDS011;48397;53.016;-2.260;2022-12-18T17:02:15;18.95;;;8.50;;
44670;SDS011;48397;53.016;-2.260;2022-12-18T17:04:51;20.00;;;8.63;;
44670;SDS011;48397;53.016;-2.260;2022-12-18T17:07:21;20.08;;;9.00;;
44670;SDS011;48397;53.016;-2.260;2022-12-18T17:12:17;17.13;;;8.50;;
44670;SDS011;48397;53.016;-2.260;2022-12-18T17:14:44;21.17;;;9.50;;
44670;SDS011;48397;53.016;-2.260;2022-12-18T17:17:12;29.95;;;10.73;;
44670;SDS011;48397;53.016;-2.260;2022-12-18T17:19:50;15.93;;;7.93;;
44670;SDS011;48397;53.016;-2.260;2022-12-18T17:22:19;24.48;;;10.85;;
44670;SDS011;48397;53.016;-2.260;2022-12-18T17:24:47;21.05;;;10.60;;